createdAt,value
2018-09-30T00:00:43.185Z,6.04
2018-09-30T00:03:12.156Z,5.98
2018-09-30T00:05:41.202Z,5.99
2018-09-30T00:08:10.257Z,6.02
2018-09-30T00:10:39.218Z,5.96
2018-09-30T00:13:09.409Z,6.03
2018-09-30T00:15:38.469Z,6.08
2018-09-30T00:18:07.814Z,5.93
2018-09-30T00:20:36.872Z,5.88
2018-09-30T00:23:05.946Z,5.88
2018-09-30T00:25:39.958Z,5.89
2018-09-30T00:28:09.070Z,5.83
2018-09-30T00:30:38.068Z,5.81
2018-09-30T00:33:07.425Z,5.84
2018-09-30T00:35:36.544Z,5.97
2018-09-30T00:38:06.285Z,5.81
2018-09-30T00:40:36.495Z,5.83
2018-09-30T00:43:05.557Z,5.79
2018-09-30T00:45:34.534Z,5.83
2018-09-30T00:48:03.783Z,5.70
2018-09-30T00:50:32.833Z,5.67
2018-09-30T00:53:01.868Z,5.61
2018-09-30T00:55:30.849Z,5.57
2018-09-30T00:57:59.945Z,5.68
2018-09-30T01:00:29.003Z,5.54
2018-09-30T01:02:58.161Z,5.55
2018-09-30T01:05:27.221Z,5.70
2018-09-30T01:07:56.352Z,5.69
2018-09-30T01:10:25.481Z,5.68
2018-09-30T01:12:54.785Z,5.56
2018-09-30T01:15:23.862Z,5.39
2018-09-30T01:17:52.866Z,5.31
2018-09-30T01:20:21.881Z,5.23
2018-09-30T01:22:51.164Z,5.18
2018-09-30T01:25:20.246Z,5.28
2018-09-30T01:27:49.246Z,5.28
2018-09-30T01:30:18.945Z,5.16
2018-09-30T01:32:47.956Z,5.27
2018-09-30T01:35:16.950Z,5.40
2018-09-30T01:37:45.952Z,5.20
2018-09-30T01:40:14.985Z,5.18
2018-09-30T01:42:43.994Z,5.16
2018-09-30T01:45:12.956Z,5.08
2018-09-30T01:47:42.037Z,5.09
2018-09-30T01:50:11.079Z,5.04
2018-09-30T01:52:52.834Z,5.14
2018-09-30T01:55:21.907Z,5.11
2018-09-30T01:57:50.898Z,5.23
2018-09-30T02:00:20.261Z,5.30
2018-09-30T02:02:49.587Z,5.18
2018-09-30T02:05:18.776Z,5.15
2018-09-30T02:07:48.802Z,5.12
2018-09-30T02:10:18.081Z,5.07
2018-09-30T02:12:47.178Z,5.01
2018-09-30T02:15:16.399Z,5.05
2018-09-30T02:17:46.373Z,5.02
2018-09-30T02:20:15.804Z,4.91
2018-09-30T02:22:44.772Z,5.02
2018-09-30T02:25:13.725Z,4.97
2018-09-30T02:27:42.820Z,5.01
2018-09-30T02:30:11.851Z,4.88
2018-09-30T02:32:46.902Z,4.98
2018-09-30T02:35:15.856Z,4.83
2018-09-30T02:37:44.855Z,4.71
2018-09-30T02:40:13.892Z,4.78
2018-09-30T02:42:42.868Z,4.75
2018-09-30T02:45:11.916Z,4.78
2018-09-30T02:47:40.936Z,4.77
2018-09-30T02:50:10.012Z,4.74
2018-09-30T02:52:38.983Z,4.50
2018-09-30T02:55:08.099Z,4.55
2018-09-30T02:57:37.098Z,4.51
2018-09-30T03:00:07.323Z,4.42
2018-09-30T03:02:36.412Z,4.30
2018-09-30T03:05:05.529Z,4.36
2018-09-30T03:07:39.618Z,4.42
2018-09-30T03:10:08.664Z,4.35
2018-09-30T03:12:37.696Z,4.22
2018-09-30T03:15:06.774Z,4.23
2018-09-30T03:17:35.743Z,4.11
2018-09-30T03:20:04.873Z,4.02
2018-09-30T03:22:34.071Z,3.93
2018-09-30T03:25:03.143Z,4.21
2018-09-30T03:27:32.211Z,4.30
2018-09-30T03:30:01.305Z,4.37
2018-09-30T03:32:30.344Z,4.31
2018-09-30T03:34:59.472Z,4.30
2018-09-30T03:37:28.747Z,4.19
2018-09-30T03:39:58.035Z,4.17
2018-09-30T03:42:27.168Z,4.26
2018-09-30T03:44:56.223Z,4.05
2018-09-30T03:47:25.246Z,3.95
2018-09-30T03:49:54.966Z,4.03
2018-09-30T03:52:24.055Z,3.99
2018-09-30T03:54:53.100Z,4.02
2018-09-30T03:57:22.255Z,4.04
2018-09-30T03:59:51.359Z,3.98
2018-09-30T04:02:20.515Z,3.96
2018-09-30T04:04:49.513Z,3.80
2018-09-30T04:07:18.485Z,3.96
2018-09-30T04:09:47.659Z,3.99
2018-09-30T04:12:16.529Z,3.94
2018-09-30T04:14:45.718Z,4.02
2018-09-30T04:17:14.872Z,3.98
2018-09-30T04:19:43.948Z,3.97
2018-09-30T04:22:13.044Z,3.89
2018-09-30T04:24:42.088Z,3.61
2018-09-30T04:27:11.171Z,3.74
2018-09-30T04:29:40.342Z,3.83
2018-09-30T04:32:09.447Z,3.77
2018-09-30T04:34:38.589Z,3.72
2018-09-30T04:37:07.951Z,3.83
2018-09-30T04:39:37.009Z,3.87
2018-09-30T04:42:06.408Z,3.82
2018-09-30T04:44:35.361Z,3.72
2018-09-30T04:47:04.429Z,3.68
2018-09-30T04:49:33.392Z,3.73
2018-09-30T04:52:02.610Z,3.69
2018-09-30T04:54:31.968Z,3.66
2018-09-30T04:57:01.595Z,3.58
2018-09-30T04:59:30.734Z,3.64
2018-09-30T05:02:00.035Z,3.54
2018-09-30T05:04:29.278Z,3.44
2018-09-30T05:06:58.437Z,3.48
2018-09-30T05:09:27.402Z,3.51
2018-09-30T05:11:56.600Z,3.46
2018-09-30T05:14:25.710Z,3.39
2018-09-30T05:16:54.805Z,3.30
2018-09-30T05:19:23.885Z,3.23
2018-09-30T05:21:53.144Z,3.41
2018-09-30T05:24:22.310Z,3.36
2018-09-30T05:26:51.439Z,3.18
2018-09-30T05:29:20.560Z,3.01
2018-09-30T05:31:49.699Z,3.22
2018-09-30T05:34:18.814Z,4.72
2018-09-30T05:36:47.990Z,7.22
2018-09-30T05:39:16.987Z,9.34
2018-09-30T05:41:46.148Z,9.16
2018-09-30T05:44:15.334Z,8.53
2018-09-30T05:46:44.327Z,9.63
2018-09-30T05:49:13.447Z,9.89
2018-09-30T05:51:42.501Z,8.14
2018-09-30T05:54:11.490Z,7.03
2018-09-30T05:56:40.514Z,6.08
2018-09-30T05:59:09.508Z,5.54
2018-09-30T06:01:38.605Z,5.26
2018-09-30T06:04:09.140Z,5.07
2018-09-30T06:06:38.485Z,5.16
2018-09-30T06:09:15.070Z,5.06
2018-09-30T06:11:45.756Z,4.95
2018-09-30T06:14:15.924Z,5.25
2018-09-30T06:16:45.325Z,5.54
2018-09-30T06:19:14.532Z,5.81
2018-09-30T06:21:43.645Z,5.81
2018-09-30T06:24:13.069Z,5.79
2018-09-30T06:26:42.231Z,5.85
2018-09-30T06:29:11.368Z,6.07
2018-09-30T06:31:40.760Z,6.04
2018-09-30T06:34:09.889Z,6.14
2018-09-30T06:36:39.245Z,6.40
2018-09-30T06:39:09.846Z,6.61
2018-09-30T06:41:39.011Z,6.78
2018-09-30T06:44:08.130Z,6.84
2018-09-30T06:46:37.342Z,7.11
2018-09-30T06:49:06.421Z,7.33
2018-09-30T06:51:36.688Z,7.12
2018-09-30T06:54:06.074Z,7.18
2018-09-30T06:56:35.246Z,7.16
2018-09-30T06:59:04.599Z,7.42
2018-09-30T07:01:33.792Z,7.28
2018-09-30T07:04:03.261Z,7.02
2018-09-30T07:06:33.235Z,6.96
2018-09-30T07:09:02.629Z,7.93
2018-09-30T07:11:31.706Z,8.04
2018-09-30T07:14:00.955Z,7.90
2018-09-30T07:16:31.238Z,8.02
2018-09-30T07:19:00.509Z,8.26
2018-09-30T07:21:30.191Z,8.42
2018-09-30T07:23:59.662Z,7.98
2018-09-30T07:26:29.250Z,8.57
2018-09-30T07:28:58.708Z,8.90
2018-09-30T07:31:28.198Z,8.70
2018-09-30T07:33:57.262Z,9.36
2018-09-30T07:36:26.265Z,9.76
2018-09-30T07:38:55.283Z,9.70
2018-09-30T07:41:24.417Z,9.71
2018-09-30T07:43:53.412Z,8.97
2018-09-30T07:46:22.774Z,9.84
2018-09-30T07:48:52.035Z,9.94
2018-09-30T07:51:21.381Z,10.04
2018-09-30T07:53:50.690Z,10.22
2018-09-30T07:56:19.784Z,9.94
2018-09-30T07:58:48.824Z,10.18
2018-09-30T08:01:17.942Z,9.85
2018-09-30T08:03:47.238Z,10.48
2018-09-30T08:06:16.313Z,10.83
2018-09-30T08:08:45.567Z,11.07
2018-09-30T08:11:14.592Z,11.29
2018-09-30T08:13:43.762Z,11.13
2018-09-30T08:16:13.250Z,11.00
2018-09-30T08:18:42.400Z,11.62
2018-09-30T08:21:11.418Z,11.62
2018-09-30T08:23:40.578Z,11.35
2018-09-30T08:26:09.611Z,12.39
2018-09-30T08:28:38.830Z,12.66
2018-09-30T08:31:07.950Z,12.51
2018-09-30T08:33:37.024Z,12.33
2018-09-30T08:36:08.384Z,12.98
2018-09-30T08:38:39.050Z,12.46
2018-09-30T08:41:09.419Z,13.83
2018-09-30T08:43:39.800Z,13.76
2018-09-30T08:46:09.202Z,13.42
2018-09-30T08:48:38.624Z,13.60
2018-09-30T08:51:07.741Z,13.43
2018-09-30T08:53:38.073Z,12.50
2018-09-30T08:56:08.144Z,13.47
2018-09-30T08:58:38.349Z,13.77
2018-09-30T09:01:07.491Z,13.68
2018-09-30T09:03:36.696Z,13.17
2018-09-30T09:06:05.758Z,13.41
2018-09-30T09:08:34.858Z,14.34
2018-09-30T09:11:03.867Z,14.88
2018-09-30T09:13:33.068Z,14.86
2018-09-30T09:16:02.086Z,14.43
2018-09-30T09:18:31.138Z,14.43
2018-09-30T09:21:00.184Z,14.76
2018-09-30T09:23:29.169Z,15.08
2018-09-30T09:25:58.280Z,15.55
2018-09-30T09:28:27.378Z,15.01
2018-09-30T09:30:56.451Z,15.54
2018-09-30T09:33:25.511Z,15.62
2018-09-30T09:35:54.610Z,15.28
2018-09-30T09:38:24.035Z,15.68
2018-09-30T09:40:53.053Z,15.85
2018-09-30T09:43:22.040Z,15.76
2018-09-30T09:45:51.231Z,15.27
2018-09-30T09:48:20.288Z,15.90
2018-09-30T09:50:49.287Z,17.16
2018-09-30T09:53:19.121Z,15.58
2018-09-30T09:55:49.065Z,16.47
2018-09-30T09:58:18.070Z,16.51
2018-09-30T10:00:47.975Z,16.21
2018-09-30T10:03:17.587Z,16.88
2018-09-30T10:05:46.831Z,17.75
2018-09-30T10:08:16.763Z,17.69
2018-09-30T10:10:45.946Z,17.19
2018-09-30T10:13:15.195Z,17.65
2018-09-30T10:15:44.343Z,17.99
2018-09-30T10:18:13.407Z,16.82
2018-09-30T10:20:42.542Z,16.86
2018-09-30T10:23:11.697Z,17.47
2018-09-30T10:25:40.932Z,17.28
2018-09-30T10:28:10.136Z,17.95
2018-09-30T10:30:39.491Z,18.58
2018-09-30T10:33:08.671Z,17.91
2018-09-30T10:35:37.787Z,17.99
2018-09-30T10:38:07.079Z,17.40
2018-09-30T10:40:36.291Z,17.54
2018-09-30T10:43:05.413Z,17.89
2018-09-30T10:45:34.572Z,18.76
2018-09-30T10:48:04.055Z,17.44
2018-09-30T10:50:34.368Z,18.33
2018-09-30T10:53:03.419Z,18.23
2018-09-30T10:55:32.811Z,18.29
2018-09-30T10:58:02.010Z,18.91
2018-09-30T11:00:31.190Z,18.84
2018-09-30T11:03:00.453Z,18.95
2018-09-30T11:05:29.650Z,19.15
2018-09-30T11:07:58.916Z,18.15
2018-09-30T11:10:28.207Z,17.58
2018-09-30T11:12:58.242Z,18.11
2018-09-30T11:15:27.496Z,18.91
2018-09-30T11:17:56.704Z,18.77
2018-09-30T11:20:27.718Z,18.34
2018-09-30T11:22:57.192Z,18.86
2018-09-30T11:25:26.359Z,19.26
2018-09-30T11:27:56.514Z,19.96
2018-09-30T11:30:25.669Z,19.90
2018-09-30T11:32:54.789Z,19.10
2018-09-30T11:35:23.985Z,19.07
2018-09-30T11:37:53.307Z,19.70
2018-09-30T11:40:22.483Z,19.01
2018-09-30T11:42:51.624Z,19.06
2018-09-30T11:45:20.780Z,19.29
2018-09-30T11:47:49.891Z,19.68
2018-09-30T11:50:18.989Z,19.96
2018-09-30T11:52:49.435Z,18.92
2018-09-30T11:55:18.492Z,19.75
2018-09-30T11:57:47.920Z,19.47
2018-09-30T12:00:17.287Z,20.12
2018-09-30T12:02:46.459Z,19.90
2018-09-30T12:05:15.619Z,19.92
2018-09-30T12:07:45.537Z,19.90
2018-09-30T12:10:14.651Z,20.13
2018-09-30T12:12:43.818Z,20.02
2018-09-30T12:15:13.467Z,20.01
2018-09-30T12:17:42.558Z,20.01
2018-09-30T12:20:12.605Z,20.21
2018-09-30T12:22:41.779Z,20.14
2018-09-30T12:25:10.755Z,20.15
2018-09-30T12:27:39.803Z,20.50
2018-09-30T12:30:08.905Z,20.90
2018-09-30T12:32:38.010Z,21.14
2018-09-30T12:35:07.373Z,21.29
2018-09-30T12:37:36.570Z,21.23
2018-09-30T12:40:05.937Z,21.17
2018-09-30T12:42:35.210Z,20.51
2018-09-30T12:45:04.322Z,20.66
2018-09-30T12:47:33.410Z,20.95
2018-09-30T12:50:02.528Z,20.16
2018-09-30T12:52:32.294Z,20.25
2018-09-30T12:55:01.309Z,20.70
2018-09-30T12:57:34.146Z,20.78
2018-09-30T13:00:03.289Z,20.97
2018-09-30T13:02:32.556Z,20.92
2018-09-30T13:05:02.617Z,20.56
2018-09-30T13:07:32.631Z,20.96
2018-09-30T13:10:01.741Z,20.55
2018-09-30T13:12:30.980Z,20.50
2018-09-30T13:15:00.030Z,20.78
2018-09-30T13:17:29.266Z,20.97
2018-09-30T13:19:58.391Z,20.78
2018-09-30T13:22:27.486Z,20.71
2018-09-30T13:24:56.564Z,20.85
2018-09-30T13:27:25.671Z,20.97
2018-09-30T13:29:54.725Z,20.94
2018-09-30T13:32:23.889Z,21.40
2018-09-30T13:34:53.066Z,20.96
2018-09-30T13:37:22.248Z,20.96
2018-09-30T13:39:51.255Z,20.96
2018-09-30T13:42:20.843Z,20.89
2018-09-30T13:44:50.570Z,21.03
2018-09-30T13:47:19.638Z,20.69
2018-09-30T13:49:48.669Z,20.49
2018-09-30T13:52:17.845Z,20.73
2018-09-30T13:54:47.035Z,20.87
2018-09-30T13:57:16.760Z,20.78
2018-09-30T13:59:45.854Z,20.90
2018-09-30T14:02:14.940Z,20.79
2018-09-30T14:04:44.030Z,21.25
2018-09-30T14:07:13.186Z,20.80
2018-09-30T14:09:42.393Z,20.69
2018-09-30T14:12:11.465Z,20.93
2018-09-30T14:14:40.562Z,20.84
2018-09-30T14:17:09.677Z,20.66
2018-09-30T14:19:38.934Z,20.42
2018-09-30T14:22:08.039Z,20.38
2018-09-30T14:24:37.207Z,20.42
2018-09-30T14:27:06.461Z,20.35
2018-09-30T14:29:35.681Z,20.29
2018-09-30T14:32:04.924Z,19.99
2018-09-30T14:34:34.027Z,19.90
2018-09-30T14:37:03.106Z,19.60
2018-09-30T14:39:32.163Z,19.57
2018-09-30T14:42:01.327Z,19.43
2018-09-30T14:44:30.410Z,19.37
2018-09-30T14:46:59.478Z,19.15
2018-09-30T14:49:28.617Z,18.94
2018-09-30T14:51:57.704Z,18.83
2018-09-30T14:54:26.854Z,18.57
2018-09-30T14:56:55.840Z,18.57
2018-09-30T14:59:24.919Z,18.48
2018-09-30T15:01:54.112Z,18.38
2018-09-30T15:04:23.309Z,18.37
2018-09-30T15:06:52.331Z,18.01
2018-09-30T15:09:21.561Z,17.61
2018-09-30T15:11:50.587Z,17.53
2018-09-30T15:14:19.660Z,17.53
2018-09-30T15:16:48.767Z,17.27
2018-09-30T15:19:17.848Z,17.04
2018-09-30T15:21:47.129Z,17.01
2018-09-30T15:24:16.386Z,16.74
2018-09-30T15:26:45.433Z,16.61
2018-09-30T15:29:14.602Z,16.84
2018-09-30T15:31:43.710Z,16.38
2018-09-30T15:34:12.729Z,16.24
2018-09-30T15:36:42.929Z,16.32
2018-09-30T15:39:13.214Z,16.07
2018-09-30T15:41:42.687Z,16.03
2018-09-30T15:44:12.561Z,15.78
2018-09-30T15:46:41.780Z,15.75
2018-09-30T15:49:11.059Z,15.61
2018-09-30T15:51:40.159Z,15.30
2018-09-30T15:54:09.357Z,15.53
2018-09-30T15:56:38.428Z,15.47
2018-09-30T15:59:07.510Z,15.43
2018-09-30T16:01:36.647Z,15.35
2018-09-30T16:04:05.633Z,15.20
2018-09-30T16:06:35.661Z,15.14
2018-09-30T16:09:07.044Z,14.99
2018-09-30T16:11:36.461Z,14.90
2018-09-30T16:14:05.670Z,14.80
2018-09-30T16:16:38.148Z,14.98
2018-09-30T16:19:07.957Z,14.59
2018-09-30T16:21:38.002Z,14.59
2018-09-30T16:24:08.257Z,14.35
2018-09-30T16:26:37.693Z,14.27
2018-09-30T16:29:07.081Z,14.38
2018-09-30T16:31:37.147Z,14.16
2018-09-30T16:34:07.649Z,14.02
2018-09-30T16:36:37.349Z,14.03
2018-09-30T16:39:10.274Z,14.08
2018-09-30T16:41:40.045Z,13.95
2018-09-30T16:44:09.295Z,13.80
2018-09-30T16:46:39.462Z,13.86
2018-09-30T16:49:08.638Z,14.02
2018-09-30T16:51:37.797Z,13.86
2018-09-30T16:54:07.901Z,13.93
2018-09-30T16:56:39.166Z,13.86
2018-09-30T16:59:08.306Z,13.67
2018-09-30T17:01:37.421Z,13.45
2018-09-30T17:04:06.619Z,13.78
2018-09-30T17:06:35.945Z,13.75
2018-09-30T17:09:06.662Z,13.44
2018-09-30T17:11:35.986Z,13.20
2018-09-30T17:14:06.695Z,13.42
2018-09-30T17:16:37.397Z,13.39
2018-09-30T17:19:06.591Z,12.96
2018-09-30T17:21:35.690Z,13.01
2018-09-30T17:24:05.646Z,12.95
2018-09-30T17:26:34.832Z,12.77
2018-09-30T17:29:03.938Z,12.77
2018-09-30T17:31:33.252Z,12.75
2018-09-30T17:34:02.821Z,12.63
2018-09-30T17:36:32.772Z,12.37
2018-09-30T17:39:02.279Z,12.37
2018-09-30T17:41:31.674Z,12.32
2018-09-30T17:44:01.558Z,12.29
2018-09-30T17:46:30.751Z,12.06
2018-09-30T17:49:00.227Z,12.22
2018-09-30T17:51:29.405Z,12.28
2018-09-30T17:53:58.781Z,12.16
2018-09-30T17:56:28.393Z,12.06
2018-09-30T17:58:59.388Z,12.03
2018-09-30T18:01:28.794Z,11.96
2018-09-30T18:03:58.598Z,11.86
2018-09-30T18:06:28.421Z,11.79
2018-09-30T18:08:59.814Z,11.62
2018-09-30T18:11:29.472Z,11.73
2018-09-30T18:14:00.356Z,11.60
2018-09-30T18:16:30.039Z,11.46
2018-09-30T18:19:00.389Z,11.47
2018-09-30T18:21:30.080Z,11.43
2018-09-30T18:24:02.003Z,11.44
2018-09-30T18:26:32.836Z,11.26
2018-09-30T18:29:06.151Z,11.34
2018-09-30T18:31:35.644Z,11.23
2018-09-30T18:34:07.361Z,11.13
2018-09-30T18:36:36.693Z,11.20
2018-09-30T18:39:08.573Z,11.10
2018-09-30T18:41:40.488Z,11.04
2018-09-30T18:44:12.233Z,10.91
2018-09-30T18:46:41.637Z,10.92
2018-09-30T18:49:11.334Z,11.02
2018-09-30T18:51:41.620Z,11.04
2018-09-30T18:54:11.484Z,10.91
2018-09-30T18:56:41.208Z,11.05
2018-09-30T18:59:11.318Z,11.01
2018-09-30T19:01:40.664Z,10.79
2018-09-30T19:04:12.570Z,10.85
2018-09-30T19:06:42.146Z,10.81
2018-09-30T19:09:12.086Z,10.66
2018-09-30T19:11:41.601Z,10.63
2018-09-30T19:14:11.087Z,10.62
2018-09-30T19:16:40.771Z,10.57
2018-09-30T19:19:10.181Z,10.41
2018-09-30T19:21:39.616Z,10.51
2018-09-30T19:24:08.953Z,10.49
2018-09-30T19:26:39.706Z,10.27
2018-09-30T19:29:09.286Z,10.34
2018-09-30T19:31:39.863Z,10.27
2018-09-30T19:34:09.655Z,10.32
2018-09-30T19:36:39.656Z,10.20
2018-09-30T19:39:11.566Z,10.18
2018-09-30T19:41:41.587Z,10.26
2018-09-30T19:44:12.653Z,10.10
2018-09-30T19:46:42.278Z,10.18
2018-09-30T19:49:12.710Z,10.10
2018-09-30T19:51:42.212Z,10.25
2018-09-30T19:54:12.602Z,9.87
2018-09-30T19:56:42.155Z,9.91
2018-09-30T19:59:11.929Z,9.87
2018-09-30T20:01:41.543Z,9.89
2018-09-30T20:04:12.069Z,9.62
2018-09-30T20:06:41.549Z,9.86
2018-09-30T20:09:13.063Z,9.84
2018-09-30T20:11:42.667Z,9.75
2018-09-30T20:14:13.178Z,9.78
2018-09-30T20:16:42.878Z,9.70
2018-09-30T20:19:12.356Z,9.65
2018-09-30T20:21:42.231Z,9.63
2018-09-30T20:24:11.518Z,9.61
2018-09-30T20:26:40.626Z,9.63
2018-09-30T20:29:10.718Z,9.51
2018-09-30T20:31:40.048Z,9.50
2018-09-30T20:34:09.539Z,9.48
2018-09-30T20:36:38.922Z,9.32
2018-09-30T20:39:08.611Z,9.42
2018-09-30T20:41:38.133Z,9.32
2018-09-30T20:44:07.325Z,9.32
2018-09-30T20:46:36.430Z,9.37
2018-09-30T20:49:05.708Z,9.33
2018-09-30T20:51:34.954Z,9.25
2018-09-30T20:54:04.044Z,9.23
2018-09-30T20:56:33.088Z,9.21
2018-09-30T20:59:02.175Z,9.15
2018-09-30T21:01:31.202Z,9.00
2018-09-30T21:04:00.247Z,9.03
2018-09-30T21:06:32.490Z,8.93
2018-09-30T21:09:01.564Z,8.95
2018-09-30T21:11:30.848Z,8.94
2018-09-30T21:13:59.877Z,8.87
2018-09-30T21:16:29.064Z,8.95
2018-09-30T21:18:58.173Z,8.84
2018-09-30T21:21:27.327Z,8.85
2018-09-30T21:23:56.553Z,8.72
2018-09-30T21:26:25.631Z,8.78
2018-09-30T21:28:54.779Z,8.65
2018-09-30T21:31:30.715Z,8.49
2018-09-30T21:34:01.044Z,8.35
2018-09-30T21:36:31.167Z,8.54
2018-09-30T21:39:01.433Z,8.68
2018-09-30T21:41:30.775Z,8.53
2018-09-30T21:44:00.265Z,8.50
2018-09-30T21:46:29.590Z,8.48
2018-09-30T21:48:58.959Z,8.58
2018-09-30T21:51:28.370Z,8.56
2018-09-30T21:53:57.766Z,8.46
2018-09-30T21:56:27.298Z,8.26
2018-09-30T21:58:56.879Z,8.19
2018-09-30T22:01:26.437Z,8.24
2018-09-30T22:03:55.778Z,8.18
2018-09-30T22:06:25.012Z,8.16
2018-09-30T22:08:54.344Z,8.10
2018-09-30T22:11:23.659Z,8.12
2018-09-30T22:13:52.897Z,8.00
2018-09-30T22:16:22.770Z,8.02
2018-09-30T22:18:52.573Z,8.03
2018-09-30T22:21:21.842Z,7.94
2018-09-30T22:23:51.190Z,7.91
2018-09-30T22:26:21.698Z,7.85
2018-09-30T22:28:50.930Z,7.94
2018-09-30T22:31:20.778Z,7.87
2018-09-30T22:33:50.177Z,7.82
2018-09-30T22:36:19.796Z,7.79
2018-09-30T22:38:49.138Z,7.87
2018-09-30T22:41:18.436Z,7.85
2018-09-30T22:43:47.761Z,7.86
2018-09-30T22:46:17.096Z,7.78
2018-09-30T22:48:46.550Z,7.76
2018-09-30T22:51:16.557Z,7.73
2018-09-30T22:53:45.814Z,7.64
2018-09-30T22:56:15.632Z,7.63
2018-09-30T22:58:45.099Z,7.60
2018-09-30T23:01:14.443Z,7.53
2018-09-30T23:03:43.859Z,7.47
2018-09-30T23:06:13.166Z,7.48
2018-09-30T23:08:42.483Z,7.51
2018-09-30T23:11:11.867Z,7.50
2018-09-30T23:13:41.337Z,7.54
2018-09-30T23:16:10.866Z,7.47
2018-09-30T23:18:40.334Z,7.54
2018-09-30T23:21:10.184Z,7.49
2018-09-30T23:23:39.563Z,7.56
2018-09-30T23:26:08.793Z,7.47
2018-09-30T23:28:38.120Z,7.48
2018-09-30T23:31:08.039Z,7.35
2018-09-30T23:33:37.383Z,7.31
2018-09-30T23:36:06.813Z,7.34
2018-09-30T23:38:36.295Z,7.05
2018-09-30T23:41:06.717Z,7.05
2018-09-30T23:43:36.104Z,7.00
2018-09-30T23:46:05.521Z,6.97
2018-09-30T23:48:35.346Z,7.08
2018-09-30T23:51:04.730Z,7.01
2018-09-30T23:53:34.335Z,6.98
2018-09-30T23:56:03.676Z,6.95
2018-09-30T23:58:33.396Z,6.98
